sensor_id;sensor_type;location;lat;lon;timestamp;temperature;humidity
39675;DHT22;27790;50.840;4.386;2022-08-07T00:02:04;17.90;68.90
39675;DHT22;27790;50.840;4.386;2022-08-07T00:04:30;17.80;69.10
39675;DHT22;27790;50.840;4.386;2022-08-07T00:06:55;17.80;69.30
39675;DHT22;27790;50.840;4.386;2022-08-07T00:09:21;17.80;69.40
39675;DHT22;27790;50.840;4.386;2022-08-07T00:11:47;17.80;69.60
39675;DHT22;27790;50.840;4.386;2022-08-07T00:14:12;17.80;69.80
39675;DHT22;27790;50.840;4.386;2022-08-07T00:16:38;17.70;70.20
39675;DHT22;27790;50.840;4.386;2022-08-07T00:19:04;17.70;70.30
39675;DHT22;27790;50.840;4.386;2022-08-07T00:21:30;17.70;70.50
39675;DHT22;27790;50.840;4.386;2022-08-07T00:23:55;17.70;70.90
39675;DHT22;27790;50.840;4.386;2022-08-07T00:26:21;17.60;71.10
39675;DHT22;27790;50.840;4.386;2022-08-07T00:28:47;17.60;71.20
39675;DHT22;27790;50.840;4.386;2022-08-07T00:31:12;17.60;71.30
39675;DHT22;27790;50.840;4.386;2022-08-07T00:33:38;17.60;71.50
39675;DHT22;27790;50.840;4.386;2022-08-07T00:36:06;17.50;71.50
39675;DHT22;27790;50.840;4.386;2022-08-07T00:38:32;17.60;71.70
39675;DHT22;27790;50.840;4.386;2022-08-07T00:41:00;17.50;71.90
39675;DHT22;27790;50.840;4.386;2022-08-07T00:43:26;17.40;72.20
39675;DHT22;27790;50.840;4.386;2022-08-07T00:45:52;17.40;72.40
39675;DHT22;27790;50.840;4.386;2022-08-07T00:48:17;17.40;72.60
39675;DHT22;27790;50.840;4.386;2022-08-07T00:50:43;17.40;72.90
39675;DHT22;27790;50.840;4.386;2022-08-07T00:53:08;17.30;73.10
39675;DHT22;27790;50.840;4.386;2022-08-07T00:55:34;17.30;73.40
39675;DHT22;27790;50.840;4.386;2022-08-07T00:58:01;17.30;73.60
39675;DHT22;27790;50.840;4.386;2022-08-07T01:00:26;17.30;73.80
39675;DHT22;27790;50.840;4.386;2022-08-07T01:02:52;17.30;73.80
39675;DHT22;27790;50.840;4.386;2022-08-07T01:05:19;17.30;74.00
39675;DHT22;27790;50.840;4.386;2022-08-07T01:07:45;17.20;74.10
39675;DHT22;27790;50.840;4.386;2022-08-07T01:10:10;17.20;74.40
39675;DHT22;27790;50.840;4.386;2022-08-07T01:12:37;17.20;74.60
39675;DHT22;27790;50.840;4.386;2022-08-07T01:15:05;17.20;74.80
39675;DHT22;27790;50.840;4.386;2022-08-07T01:17:31;17.20;74.90
39675;DHT22;27790;50.840;4.386;2022-08-07T01:20:06;17.20;74.80
39675;DHT22;27790;50.840;4.386;2022-08-07T01:22:32;17.20;74.80
39675;DHT22;27790;50.840;4.386;2022-08-07T01:24:58;17.20;75.10
39675;DHT22;27790;50.840;4.386;2022-08-07T01:27:24;17.20;75.20
39675;DHT22;27790;50.840;4.386;2022-08-07T01:29:50;17.20;75.40
39675;DHT22;27790;50.840;4.386;2022-08-07T01:32:16;17.10;75.60
39675;DHT22;27790;50.840;4.386;2022-08-07T01:34:41;17.10;76.30
39675;DHT22;27790;50.840;4.386;2022-08-07T01:37:10;17.10;75.90
39675;DHT22;27790;50.840;4.386;2022-08-07T01:39:38;17.10;76.10
39675;DHT22;27790;50.840;4.386;2022-08-07T01:42:03;17.10;76.30
39675;DHT22;27790;50.840;4.386;2022-08-07T01:44:29;17.10;76.40
39675;DHT22;27790;50.840;4.386;2022-08-07T01:46:56;17.10;76.50
39675;DHT22;27790;50.840;4.386;2022-08-07T01:49:22;17.10;76.30
39675;DHT22;27790;50.840;4.386;2022-08-07T01:51:49;17.00;76.60
39675;DHT22;27790;50.840;4.386;2022-08-07T01:54:18;17.00;77.00
39675;DHT22;27790;50.840;4.386;2022-08-07T01:56:56;16.90;77.20
39675;DHT22;27790;50.840;4.386;2022-08-07T01:59:35;16.90;77.40
39675;DHT22;27790;50.840;4.386;2022-08-07T02:02:07;16.90;77.70
39675;DHT22;27790;50.840;4.386;2022-08-07T02:04:43;16.80;77.90
39675;DHT22;27790;50.840;4.386;2022-08-07T02:07:12;16.80;78.00
39675;DHT22;27790;50.840;4.386;2022-08-07T02:09:41;16.80;78.10
39675;DHT22;27790;50.840;4.386;2022-08-07T02:12:08;16.80;78.20
39675;DHT22;27790;50.840;4.386;2022-08-07T02:14:52;16.90;78.20
39675;DHT22;27790;50.840;4.386;2022-08-07T02:17:19;16.80;78.20
39675;DHT22;27790;50.840;4.386;2022-08-07T02:19:47;16.80;78.40
39675;DHT22;27790;50.840;4.386;2022-08-07T02:22:15;16.80;78.50
39675;DHT22;27790;50.840;4.386;2022-08-07T02:24:42;16.80;78.50
39675;DHT22;27790;50.840;4.386;2022-08-07T02:27:09;16.80;78.70
39675;DHT22;27790;50.840;4.386;2022-08-07T02:29:37;16.80;78.80
39675;DHT22;27790;50.840;4.386;2022-08-07T02:32:04;16.80;79.00
39675;DHT22;27790;50.840;4.386;2022-08-07T02:34:31;16.80;79.10
39675;DHT22;27790;50.840;4.386;2022-08-07T02:36:58;16.70;79.20
39675;DHT22;27790;50.840;4.386;2022-08-07T02:39:26;16.70;79.30
39675;DHT22;27790;50.840;4.386;2022-08-07T02:41:52;16.70;79.40
39675;DHT22;27790;50.840;4.386;2022-08-07T02:44:20;16.70;79.30
39675;DHT22;27790;50.840;4.386;2022-08-07T02:46:46;16.70;79.40
39675;DHT22;27790;50.840;4.386;2022-08-07T02:49:13;16.70;79.70
39675;DHT22;27790;50.840;4.386;2022-08-07T02:51:39;16.70;79.80
39675;DHT22;27790;50.840;4.386;2022-08-07T02:54:08;16.70;79.90
39675;DHT22;27790;50.840;4.386;2022-08-07T02:56:37;16.70;80.30
39675;DHT22;27790;50.840;4.386;2022-08-07T02:59:06;16.70;80.10
39675;DHT22;27790;50.840;4.386;2022-08-07T03:01:38;16.70;80.20
39675;DHT22;27790;50.840;4.386;2022-08-07T03:04:05;16.70;80.20
39675;DHT22;27790;50.840;4.386;2022-08-07T03:06:33;16.70;80.10
39675;DHT22;27790;50.840;4.386;2022-08-07T03:09:01;16.70;80.10
39675;DHT22;27790;50.840;4.386;2022-08-07T03:11:28;16.60;80.40
39675;DHT22;27790;50.840;4.386;2022-08-07T03:13:54;16.60;80.60
39675;DHT22;27790;50.840;4.386;2022-08-07T03:16:21;16.60;80.70
39675;DHT22;27790;50.840;4.386;2022-08-07T03:18:47;16.60;80.80
39675;DHT22;27790;50.840;4.386;2022-08-07T03:21:13;16.60;81.00
39675;DHT22;27790;50.840;4.386;2022-08-07T03:23:40;16.50;81.30
39675;DHT22;27790;50.840;4.386;2022-08-07T03:26:08;16.50;81.30
39675;DHT22;27790;50.840;4.386;2022-08-07T03:28:34;16.50;81.30
39675;DHT22;27790;50.840;4.386;2022-08-07T03:31:02;16.60;81.20
39675;DHT22;27790;50.840;4.386;2022-08-07T03:33:41;16.50;81.30
39675;DHT22;27790;50.840;4.386;2022-08-07T03:36:08;16.50;81.50
39675;DHT22;27790;50.840;4.386;2022-08-07T03:38:36;16.50;81.60
39675;DHT22;27790;50.840;4.386;2022-08-07T03:41:02;16.60;81.40
39675;DHT22;27790;50.840;4.386;2022-08-07T03:43:28;16.60;81.40
39675;DHT22;27790;50.840;4.386;2022-08-07T03:45:54;16.60;81.40
39675;DHT22;27790;50.840;4.386;2022-08-07T03:48:20;16.60;81.40
39675;DHT22;27790;50.840;4.386;2022-08-07T03:50:46;16.50;81.60
39675;DHT22;27790;50.840;4.386;2022-08-07T03:53:12;16.50;81.60
39675;DHT22;27790;50.840;4.386;2022-08-07T03:55:39;16.50;81.80
39675;DHT22;27790;50.840;4.386;2022-08-07T03:58:05;16.50;81.90
39675;DHT22;27790;50.840;4.386;2022-08-07T04:00:31;16.50;81.90
39675;DHT22;27790;50.840;4.386;2022-08-07T04:02:58;16.50;81.80
39675;DHT22;27790;50.840;4.386;2022-08-07T04:05:24;16.50;81.70
39675;DHT22;27790;50.840;4.386;2022-08-07T04:07:50;16.50;82.00
39675;DHT22;27790;50.840;4.386;2022-08-07T04:10:15;16.50;82.00
39675;DHT22;27790;50.840;4.386;2022-08-07T04:12:42;16.40;82.00
39675;DHT22;27790;50.840;4.386;2022-08-07T04:15:08;16.50;82.10
39675;DHT22;27790;50.840;4.386;2022-08-07T04:17:34;16.50;82.30
39675;DHT22;27790;50.840;4.386;2022-08-07T04:20:00;16.40;82.30
39675;DHT22;27790;50.840;4.386;2022-08-07T04:22:26;16.30;82.60
39675;DHT22;27790;50.840;4.386;2022-08-07T04:24:51;16.30;82.90
39675;DHT22;27790;50.840;4.386;2022-08-07T04:27:17;16.30;83.20
39675;DHT22;27790;50.840;4.386;2022-08-07T04:29:43;16.20;83.20
39675;DHT22;27790;50.840;4.386;2022-08-07T04:32:09;16.30;83.30
39675;DHT22;27790;50.840;4.386;2022-08-07T04:34:35;16.20;83.50
39675;DHT22;27790;50.840;4.386;2022-08-07T04:37:01;16.20;83.70
39675;DHT22;27790;50.840;4.386;2022-08-07T04:39:27;16.20;83.60
39675;DHT22;27790;50.840;4.386;2022-08-07T04:41:53;16.20;83.80
39675;DHT22;27790;50.840;4.386;2022-08-07T04:44:19;16.20;84.00
39675;DHT22;27790;50.840;4.386;2022-08-07T04:55:17;16.10;84.50
39675;DHT22;27790;50.840;4.386;2022-08-07T04:57:57;16.10;84.90
39675;DHT22;27790;50.840;4.386;2022-08-07T05:05:50;16.70;83.10
39675;DHT22;27790;50.840;4.386;2022-08-07T05:08:25;17.50;80.40
39675;DHT22;27790;50.840;4.386;2022-08-07T05:13:35;18.80;75.50
39675;DHT22;27790;50.840;4.386;2022-08-07T05:16:08;19.20;74.10
39675;DHT22;27790;50.840;4.386;2022-08-07T05:18:36;19.70;72.90
39675;DHT22;27790;50.840;4.386;2022-08-07T05:21:07;20.20;71.00
39675;DHT22;27790;50.840;4.386;2022-08-07T05:23:46;20.60;70.00
39675;DHT22;27790;50.840;4.386;2022-08-07T05:26:21;20.90;68.40
39675;DHT22;27790;50.840;4.386;2022-08-07T05:28:50;20.80;68.20
39675;DHT22;27790;50.840;4.386;2022-08-07T05:31:18;20.40;69.30
39675;DHT22;27790;50.840;4.386;2022-08-07T05:33:46;19.90;70.90
39675;DHT22;27790;50.840;4.386;2022-08-07T05:36:14;19.60;72.20
39675;DHT22;27790;50.840;4.386;2022-08-07T05:38:41;19.30;72.90
39675;DHT22;27790;50.840;4.386;2022-08-07T05:41:08;18.90;73.90
39675;DHT22;27790;50.840;4.386;2022-08-07T05:43:35;18.70;74.90
39675;DHT22;27790;50.840;4.386;2022-08-07T05:46:01;18.70;75.10
39675;DHT22;27790;50.840;4.386;2022-08-07T05:48:28;18.70;75.20
39675;DHT22;27790;50.840;4.386;2022-08-07T05:50:55;18.80;74.80
39675;DHT22;27790;50.840;4.386;2022-08-07T05:53:21;18.60;75.20
39675;DHT22;27790;50.840;4.386;2022-08-07T05:55:48;18.50;75.60
39675;DHT22;27790;50.840;4.386;2022-08-07T05:58:14;18.30;76.00
39675;DHT22;27790;50.840;4.386;2022-08-07T06:00:43;18.20;76.70
39675;DHT22;27790;50.840;4.386;2022-08-07T06:03:11;18.20;76.80
39675;DHT22;27790;50.840;4.386;2022-08-07T06:05:37;18.20;76.80
39675;DHT22;27790;50.840;4.386;2022-08-07T06:08:03;18.20;76.70
39675;DHT22;27790;50.840;4.386;2022-08-07T06:10:29;18.20;76.80
39675;DHT22;27790;50.840;4.386;2022-08-07T06:12:56;18.30;76.90
39675;DHT22;27790;50.840;4.386;2022-08-07T06:15:22;18.40;76.60
39675;DHT22;27790;50.840;4.386;2022-08-07T06:17:50;18.50;76.50
39675;DHT22;27790;50.840;4.386;2022-08-07T06:20:16;18.70;75.60
39675;DHT22;27790;50.840;4.386;2022-08-07T06:22:43;18.80;75.20
39675;DHT22;27790;50.840;4.386;2022-08-07T06:25:09;18.90;75.40
39675;DHT22;27790;50.840;4.386;2022-08-07T06:27:38;19.00;74.50
39675;DHT22;27790;50.840;4.386;2022-08-07T06:30:03;18.90;74.80
39675;DHT22;27790;50.840;4.386;2022-08-07T06:32:30;18.80;74.70
39675;DHT22;27790;50.840;4.386;2022-08-07T06:34:55;18.80;74.60
39675;DHT22;27790;50.840;4.386;2022-08-07T06:37:21;18.50;75.50
39675;DHT22;27790;50.840;4.386;2022-08-07T06:39:46;18.40;76.00
39675;DHT22;27790;50.840;4.386;2022-08-07T06:42:19;18.50;76.20
39675;DHT22;27790;50.840;4.386;2022-08-07T06:44:48;18.70;76.10
39675;DHT22;27790;50.840;4.386;2022-08-07T06:47:15;18.80;75.40
39675;DHT22;27790;50.840;4.386;2022-08-07T06:49:42;19.00;74.90
39675;DHT22;27790;50.840;4.386;2022-08-07T06:52:09;19.00;73.90
39675;DHT22;27790;50.840;4.386;2022-08-07T06:54:37;19.10;73.90
39675;DHT22;27790;50.840;4.386;2022-08-07T06:57:05;19.10;73.40
39675;DHT22;27790;50.840;4.386;2022-08-07T06:59:34;19.20;73.40
39675;DHT22;27790;50.840;4.386;2022-08-07T07:02:01;19.20;73.20
39675;DHT22;27790;50.840;4.386;2022-08-07T07:04:28;19.20;73.60
39675;DHT22;27790;50.840;4.386;2022-08-07T07:06:56;19.30;73.40
39675;DHT22;27790;50.840;4.386;2022-08-07T07:09:26;19.60;72.60
39675;DHT22;27790;50.840;4.386;2022-08-07T07:14:44;21.40;68.60
39675;DHT22;27790;50.840;4.386;2022-08-07T07:17:19;22.30;66.00
39675;DHT22;27790;50.840;4.386;2022-08-07T07:19:49;23.20;64.00
39675;DHT22;27790;50.840;4.386;2022-08-07T07:22:17;23.90;62.00
39675;DHT22;27790;50.840;4.386;2022-08-07T07:24:44;24.60;59.70
39675;DHT22;27790;50.840;4.386;2022-08-07T07:27:12;25.10;58.20
39675;DHT22;27790;50.840;4.386;2022-08-07T07:29:42;25.60;56.40
39675;DHT22;27790;50.840;4.386;2022-08-07T07:32:12;25.80;55.60
39675;DHT22;27790;50.840;4.386;2022-08-07T07:34:43;25.90;54.90
39675;DHT22;27790;50.840;4.386;2022-08-07T07:37:10;25.90;55.80
39675;DHT22;27790;50.840;4.386;2022-08-07T07:39:37;25.80;55.00
39675;DHT22;27790;50.840;4.386;2022-08-07T07:42:05;25.90;54.90
39675;DHT22;27790;50.840;4.386;2022-08-07T07:44:32;26.10;54.60
39675;DHT22;27790;50.840;4.386;2022-08-07T07:47:00;26.20;54.70
39675;DHT22;27790;50.840;4.386;2022-08-07T07:49:27;26.30;54.60
39675;DHT22;27790;50.840;4.386;2022-08-07T07:51:55;26.50;53.90
39675;DHT22;27790;50.840;4.386;2022-08-07T07:54:22;26.70;53.30
39675;DHT22;27790;50.840;4.386;2022-08-07T07:56:50;26.80;53.10
39675;DHT22;27790;50.840;4.386;2022-08-07T07:59:18;27.00;52.70
39675;DHT22;27790;50.840;4.386;2022-08-07T08:01:45;27.10;52.10
39675;DHT22;27790;50.840;4.386;2022-08-07T08:04:13;27.40;51.70
39675;DHT22;27790;50.840;4.386;2022-08-07T08:06:42;27.60;51.70
39675;DHT22;27790;50.840;4.386;2022-08-07T08:09:08;27.80;51.10
39675;DHT22;27790;50.840;4.386;2022-08-07T08:11:35;27.90;50.40
39675;DHT22;27790;50.840;4.386;2022-08-07T08:14:01;27.80;50.40
39675;DHT22;27790;50.840;4.386;2022-08-07T08:16:36;27.70;50.60
39675;DHT22;27790;50.840;4.386;2022-08-07T08:19:05;27.90;50.10
39675;DHT22;27790;50.840;4.386;2022-08-07T08:21:32;28.30;49.40
39675;DHT22;27790;50.840;4.386;2022-08-07T08:24:10;28.50;48.80
39675;DHT22;27790;50.840;4.386;2022-08-07T08:26:50;28.60;48.40
39675;DHT22;27790;50.840;4.386;2022-08-07T08:29:28;28.50;48.80
39675;DHT22;27790;50.840;4.386;2022-08-07T08:31:55;28.50;49.10
39675;DHT22;27790;50.840;4.386;2022-08-07T08:34:22;28.70;48.30
39675;DHT22;27790;50.840;4.386;2022-08-07T08:36:50;28.90;48.00
39675;DHT22;27790;50.840;4.386;2022-08-07T08:39:17;29.20;48.10
39675;DHT22;27790;50.840;4.386;2022-08-07T08:41:49;29.20;47.60
39675;DHT22;27790;50.840;4.386;2022-08-07T08:44:29;29.40;47.90
39675;DHT22;27790;50.840;4.386;2022-08-07T08:52:21;29.90;46.00
39675;DHT22;27790;50.840;4.386;2022-08-07T08:57:45;30.00;46.30
39675;DHT22;27790;50.840;4.386;2022-08-07T09:00:14;30.30;46.10
39675;DHT22;27790;50.840;4.386;2022-08-07T09:05:33;30.80;45.00
39675;DHT22;27790;50.840;4.386;2022-08-07T09:11:04;31.00;44.50
39675;DHT22;27790;50.840;4.386;2022-08-07T09:13:45;31.00;44.50
39675;DHT22;27790;50.840;4.386;2022-08-07T09:21:46;31.00;44.60
39675;DHT22;27790;50.840;4.386;2022-08-07T09:24:35;31.00;44.00
39675;DHT22;27790;50.840;4.386;2022-08-07T09:30:16;30.20;44.60
39675;DHT22;27790;50.840;4.386;2022-08-07T09:45:23;26.60;47.80
39675;DHT22;27790;50.840;4.386;2022-08-07T09:51:02;25.30;49.30
39675;DHT22;27790;50.840;4.386;2022-08-07T09:53:33;24.90;50.80
39675;DHT22;27790;50.840;4.386;2022-08-07T10:06:57;24.10;53.30
39675;DHT22;27790;50.840;4.386;2022-08-07T10:12:17;24.10;52.70
39675;DHT22;27790;50.840;4.386;2022-08-07T10:15:00;24.10;52.80
39675;DHT22;27790;50.840;4.386;2022-08-07T10:20:10;24.00;52.60
39675;DHT22;27790;50.840;4.386;2022-08-07T10:22:56;24.10;52.50
39675;DHT22;27790;50.840;4.386;2022-08-07T10:25:34;24.00;52.10
39675;DHT22;27790;50.840;4.386;2022-08-07T10:30:42;24.10;52.00
39675;DHT22;27790;50.840;4.386;2022-08-07T10:38:56;24.00;53.10
39675;DHT22;27790;50.840;4.386;2022-08-07T10:41:35;24.10;52.20
39675;DHT22;27790;50.840;4.386;2022-08-07T10:46:41;24.30;51.80
39675;DHT22;27790;50.840;4.386;2022-08-07T10:49:14;24.20;51.40
39675;DHT22;27790;50.840;4.386;2022-08-07T10:51:55;24.20;51.80
39675;DHT22;27790;50.840;4.386;2022-08-07T10:54:33;24.30;51.90
39675;DHT22;27790;50.840;4.386;2022-08-07T11:02:01;24.00;52.30
39675;DHT22;27790;50.840;4.386;2022-08-07T11:07:22;24.00;51.40
39675;DHT22;27790;50.840;4.386;2022-08-07T11:09:55;24.00;51.60
39675;DHT22;27790;50.840;4.386;2022-08-07T11:12:35;24.10;51.40
39675;DHT22;27790;50.840;4.386;2022-08-07T11:15:06;24.00;51.20
39675;DHT22;27790;50.840;4.386;2022-08-07T11:17:48;24.00;50.70
39675;DHT22;27790;50.840;4.386;2022-08-07T11:20:30;23.90;50.50
39675;DHT22;27790;50.840;4.386;2022-08-07T11:23:21;23.90;50.70
39675;DHT22;27790;50.840;4.386;2022-08-07T11:26:02;24.00;49.90
39675;DHT22;27790;50.840;4.386;2022-08-07T11:28:38;23.90;50.50
39675;DHT22;27790;50.840;4.386;2022-08-07T11:31:12;24.00;52.30
39675;DHT22;27790;50.840;4.386;2022-08-07T11:33:43;24.00;51.00
39675;DHT22;27790;50.840;4.386;2022-08-07T11:36:19;24.00;52.20
39675;DHT22;27790;50.840;4.386;2022-08-07T11:39:03;24.20;50.80
39675;DHT22;27790;50.840;4.386;2022-08-07T11:41:38;24.20;50.70
39675;DHT22;27790;50.840;4.386;2022-08-07T11:47:00;24.50;50.50
39675;DHT22;27790;50.840;4.386;2022-08-07T11:52:24;24.70;51.60
39675;DHT22;27790;50.840;4.386;2022-08-07T11:55:07;24.80;50.80
39675;DHT22;27790;50.840;4.386;2022-08-07T11:57:42;24.70;49.20
39675;DHT22;27790;50.840;4.386;2022-08-07T12:08:21;24.50;47.70
39675;DHT22;27790;50.840;4.386;2022-08-07T12:10:58;24.30;48.60
39675;DHT22;27790;50.840;4.386;2022-08-07T12:16:12;24.60;49.10
39675;DHT22;27790;50.840;4.386;2022-08-07T12:18:47;24.80;48.70
39675;DHT22;27790;50.840;4.386;2022-08-07T12:21:34;24.80;47.20
39675;DHT22;27790;50.840;4.386;2022-08-07T12:24:07;24.80;47.80
39675;DHT22;27790;50.840;4.386;2022-08-07T12:32:00;24.60;49.70
39675;DHT22;27790;50.840;4.386;2022-08-07T12:34:30;24.60;48.40
39675;DHT22;27790;50.840;4.386;2022-08-07T12:37:00;24.60;48.90
39675;DHT22;27790;50.840;4.386;2022-08-07T12:39:29;24.60;48.00
39675;DHT22;27790;50.840;4.386;2022-08-07T12:41:57;24.50;48.00
39675;DHT22;27790;50.840;4.386;2022-08-07T12:44:24;24.50;49.20
39675;DHT22;27790;50.840;4.386;2022-08-07T12:52:13;24.70;47.60
39675;DHT22;27790;50.840;4.386;2022-08-07T12:54:42;24.80;47.60
39675;DHT22;27790;50.840;4.386;2022-08-07T12:57:09;24.80;46.30
39675;DHT22;27790;50.840;4.386;2022-08-07T12:59:35;24.80;46.50
39675;DHT22;27790;50.840;4.386;2022-08-07T13:04:58;24.70;46.70
39675;DHT22;27790;50.840;4.386;2022-08-07T13:21:39;24.80;46.00
39675;DHT22;27790;50.840;4.386;2022-08-07T13:42:55;24.80;46.40
39675;DHT22;27790;50.840;4.386;2022-08-07T13:45:22;24.90;46.80
39675;DHT22;27790;50.840;4.386;2022-08-07T13:47:51;24.90;46.10
39675;DHT22;27790;50.840;4.386;2022-08-07T13:50:19;24.70;45.90
39675;DHT22;27790;50.840;4.386;2022-08-07T13:52:47;24.60;46.50
39675;DHT22;27790;50.840;4.386;2022-08-07T13:55:15;24.70;46.20
39675;DHT22;27790;50.840;4.386;2022-08-07T13:57:45;24.70;46.20
39675;DHT22;27790;50.840;4.386;2022-08-07T14:00:11;24.80;46.80
39675;DHT22;27790;50.840;4.386;2022-08-07T14:02:37;24.90;46.50
39675;DHT22;27790;50.840;4.386;2022-08-07T14:05:08;25.00;46.90
39675;DHT22;27790;50.840;4.386;2022-08-07T14:07:45;25.00;47.90
39675;DHT22;27790;50.840;4.386;2022-08-07T14:10:12;25.10;47.10
39675;DHT22;27790;50.840;4.386;2022-08-07T14:12:59;25.00;45.80
39675;DHT22;27790;50.840;4.386;2022-08-07T14:15:28;24.90;46.00
39675;DHT22;27790;50.840;4.386;2022-08-07T14:17:58;24.90;46.90
39675;DHT22;27790;50.840;4.386;2022-08-07T14:20:28;25.00;47.40
39675;DHT22;27790;50.840;4.386;2022-08-07T14:23:36;25.00;49.70
39675;DHT22;27790;50.840;4.386;2022-08-07T14:26:11;25.00;47.30
39675;DHT22;27790;50.840;4.386;2022-08-07T14:28:40;25.10;47.60
39675;DHT22;27790;50.840;4.386;2022-08-07T14:31:08;25.00;47.80
39675;DHT22;27790;50.840;4.386;2022-08-07T14:33:34;24.90;48.30
39675;DHT22;27790;50.840;4.386;2022-08-07T14:36:01;25.00;48.40
39675;DHT22;27790;50.840;4.386;2022-08-07T14:38:29;25.00;48.40
39675;DHT22;27790;50.840;4.386;2022-08-07T14:40:57;25.10;48.00
39675;DHT22;27790;50.840;4.386;2022-08-07T14:43:25;25.30;47.00
39675;DHT22;27790;50.840;4.386;2022-08-07T14:45:54;25.20;46.70
39675;DHT22;27790;50.840;4.386;2022-08-07T14:48:25;25.20;46.70
39675;DHT22;27790;50.840;4.386;2022-08-07T14:50:54;25.20;47.80
39675;DHT22;27790;50.840;4.386;2022-08-07T14:53:23;25.20;47.40
39675;DHT22;27790;50.840;4.386;2022-08-07T14:55:50;25.20;47.10
39675;DHT22;27790;50.840;4.386;2022-08-07T14:58:16;25.00;46.80
39675;DHT22;27790;50.840;4.386;2022-08-07T15:00:47;25.00;47.10
39675;DHT22;27790;50.840;4.386;2022-08-07T15:03:16;25.10;47.40
39675;DHT22;27790;50.840;4.386;2022-08-07T15:05:47;25.00;48.00
39675;DHT22;27790;50.840;4.386;2022-08-07T15:08:22;25.00;48.40
39675;DHT22;27790;50.840;4.386;2022-08-07T15:10:55;25.00;49.40
39675;DHT22;27790;50.840;4.386;2022-08-07T15:13:22;25.10;48.60
39675;DHT22;27790;50.840;4.386;2022-08-07T15:15:52;25.10;49.00
39675;DHT22;27790;50.840;4.386;2022-08-07T15:20:59;25.20;48.70
39675;DHT22;27790;50.840;4.386;2022-08-07T15:23:28;25.20;48.70
39675;DHT22;27790;50.840;4.386;2022-08-07T15:25:57;25.20;48.70
39675;DHT22;27790;50.840;4.386;2022-08-07T15:28:26;25.10;48.30
39675;DHT22;27790;50.840;4.386;2022-08-07T15:30:58;25.10;48.70
39675;DHT22;27790;50.840;4.386;2022-08-07T15:33:26;25.20;48.30
39675;DHT22;27790;50.840;4.386;2022-08-07T15:35:55;25.30;48.40
39675;DHT22;27790;50.840;4.386;2022-08-07T15:38:32;25.20;48.00
39675;DHT22;27790;50.840;4.386;2022-08-07T15:41:05;25.20;47.80
39675;DHT22;27790;50.840;4.386;2022-08-07T15:43:33;25.10;47.90
39675;DHT22;27790;50.840;4.386;2022-08-07T15:46:21;25.10;47.60
39675;DHT22;27790;50.840;4.386;2022-08-07T15:48:49;25.10;47.60
39675;DHT22;27790;50.840;4.386;2022-08-07T15:51:16;25.10;47.70
39675;DHT22;27790;50.840;4.386;2022-08-07T15:53:48;25.10;47.70
39675;DHT22;27790;50.840;4.386;2022-08-07T15:56:15;25.10;47.60
39675;DHT22;27790;50.840;4.386;2022-08-07T15:58:56;25.20;47.90
39675;DHT22;27790;50.840;4.386;2022-08-07T16:01:27;25.20;47.30
39675;DHT22;27790;50.840;4.386;2022-08-07T16:03:58;25.10;47.40
39675;DHT22;27790;50.840;4.386;2022-08-07T16:06:36;25.20;47.80
39675;DHT22;27790;50.840;4.386;2022-08-07T16:09:10;25.10;47.20
39675;DHT22;27790;50.840;4.386;2022-08-07T16:14:15;25.00;47.70
39675;DHT22;27790;50.840;4.386;2022-08-07T16:17:01;25.00;47.60
39675;DHT22;27790;50.840;4.386;2022-08-07T16:28:06;24.90;47.90
39675;DHT22;27790;50.840;4.386;2022-08-07T16:31:03;24.90;48.10
39675;DHT22;27790;50.840;4.386;2022-08-07T16:33:29;24.90;48.30
39675;DHT22;27790;50.840;4.386;2022-08-07T16:41:46;25.00;48.80
39675;DHT22;27790;50.840;4.386;2022-08-07T16:44:30;25.00;49.10
39675;DHT22;27790;50.840;4.386;2022-08-07T16:47:53;24.90;49.60
39675;DHT22;27790;50.840;4.386;2022-08-07T16:50:15;24.80;49.90
39675;DHT22;27790;50.840;4.386;2022-08-07T16:56:25;24.70;49.90
39675;DHT22;27790;50.840;4.386;2022-08-07T16:58:47;24.60;50.10
39675;DHT22;27790;50.840;4.386;2022-08-07T17:01:35;24.50;50.60
39675;DHT22;27790;50.840;4.386;2022-08-07T17:12:09;24.30;51.80
39675;DHT22;27790;50.840;4.386;2022-08-07T17:17:23;24.30;52.40
39675;DHT22;27790;50.840;4.386;2022-08-07T17:19:57;24.20;52.40
39675;DHT22;27790;50.840;4.386;2022-08-07T17:22:37;24.20;52.70
39675;DHT22;27790;50.840;4.386;2022-08-07T17:25:12;24.10;53.20
39675;DHT22;27790;50.840;4.386;2022-08-07T17:27:59;24.00;53.90
39675;DHT22;27790;50.840;4.386;2022-08-07T17:30:43;23.90;54.30
39675;DHT22;27790;50.840;4.386;2022-08-07T17:33:18;23.80;54.70
39675;DHT22;27790;50.840;4.386;2022-08-07T17:35:58;23.80;54.90
39675;DHT22;27790;50.840;4.386;2022-08-07T17:38:37;23.80;54.80
39675;DHT22;27790;50.840;4.386;2022-08-07T17:41:16;23.80;55.20
39675;DHT22;27790;50.840;4.386;2022-08-07T17:43:58;23.80;55.50
39675;DHT22;27790;50.840;4.386;2022-08-07T17:46:40;23.70;55.90
39675;DHT22;27790;50.840;4.386;2022-08-07T17:49:13;23.60;56.60
39675;DHT22;27790;50.840;4.386;2022-08-07T17:54:53;23.40;56.80
39675;DHT22;27790;50.840;4.386;2022-08-07T17:57:37;23.40;57.10
39675;DHT22;27790;50.840;4.386;2022-08-07T18:00:07;23.40;57.00
39675;DHT22;27790;50.840;4.386;2022-08-07T18:02:39;23.40;57.10
39675;DHT22;27790;50.840;4.386;2022-08-07T18:10:49;23.00;57.80
39675;DHT22;27790;50.840;4.386;2022-08-07T18:16:11;23.00;57.90
39675;DHT22;27790;50.840;4.386;2022-08-07T18:18:49;22.90;58.20
39675;DHT22;27790;50.840;4.386;2022-08-07T18:21:33;22.80;58.50
39675;DHT22;27790;50.840;4.386;2022-08-07T18:24:30;22.80;58.60
39675;DHT22;27790;50.840;4.386;2022-08-07T18:27:07;22.80;58.60
39675;DHT22;27790;50.840;4.386;2022-08-07T18:38:15;22.50;59.40
39675;DHT22;27790;50.840;4.386;2022-08-07T18:46:21;22.30;60.10
39675;DHT22;27790;50.840;4.386;2022-08-07T19:02:21;21.90;61.40
39675;DHT22;27790;50.840;4.386;2022-08-07T19:05:07;22.00;61.50
39675;DHT22;27790;50.840;4.386;2022-08-07T19:07:46;21.80;61.80
39675;DHT22;27790;50.840;4.386;2022-08-07T19:10:19;21.70;62.40
39675;DHT22;27790;50.840;4.386;2022-08-07T19:12:55;21.60;62.70
39675;DHT22;27790;50.840;4.386;2022-08-07T19:26:22;21.40;63.50
39675;DHT22;27790;50.840;4.386;2022-08-07T19:28:52;21.30;63.60
39675;DHT22;27790;50.840;4.386;2022-08-07T19:31:36;21.30;63.90
39675;DHT22;27790;50.840;4.386;2022-08-07T19:34:05;21.30;64.00
39675;DHT22;27790;50.840;4.386;2022-08-07T19:36:39;21.20;64.20
39675;DHT22;27790;50.840;4.386;2022-08-07T19:39:07;21.20;64.30
39675;DHT22;27790;50.840;4.386;2022-08-07T19:41:40;21.10;64.50
39675;DHT22;27790;50.840;4.386;2022-08-07T19:44:07;21.10;64.30
39675;DHT22;27790;50.840;4.386;2022-08-07T19:46:38;21.10;64.40
39675;DHT22;27790;50.840;4.386;2022-08-07T19:49:06;21.00;64.70
39675;DHT22;27790;50.840;4.386;2022-08-07T19:51:34;20.90;65.00